Portada
METAR-TAF:

METAR-TAF

Aeroports :

Sukhothai, Tailàndia

latitud: 17-14-16N, longitud: 099-49-05E, altitud: 55 m

Observació

L'informe es va fer fa 13 hores i 3 minuts, a les 10:00 UTC
Vent 3 kt del Sud/Sud-Oest
Temperatura 33°C
Humitat 46%
Pressió 1009 hPa
Visibilitat 10 km o més
Núvols disperses a una alçada de 2500 ft

METAR: VTPO 191000Z 21003KT 9999 SCT025 33/20 Q1009 NOSIG

Hora: 06:03 (23:03 UTC)

Pronòstic

L'informe es va fer fa 12 hores i 3 minuts, a les 11:00 UTC
Pronòstic vàlid del 19 a les 12 UTC al 20 a les 12 UTC
Vent 5 kt del Sud/Sud-Oest
Visibilitat 10 km o més
Escasses núvols a una alçada de 2500 ft
Evolucionant progressivament
l' 19 a les 21 UTC al 19 a les 23 UTC
Visibilitat: 4000 m
boirina
Evolucionant progressivament
l' 20 a les 01 UTC al 20 a les 03 UTC
Visibilitat 10 km o més

TAF: VTPO 191100Z 1912/2012 20005KT 9999 FEW025 BECMG 1921/1923 4000 BR BECMG 2001/2003 9999 NSW

Observacions i pronòstics meteorològics de més de 4000 aeroports (METAR i TAF).

Les estacions disponibles són els punts grocs i vermells al mapa.

Posi el ratolí al punt desitjat per veure el nom de l'estació.

Feu clic per veure les observacions i els pronòstics meteorològics.

Per canviar el mapa: feu clic els botons verds amb una creu de color negre per apropar; al botó verd amb un guió per allunyar la imatge; o en les fletxes verdes per a mapes adjacents.


METAR-TAF: